sensor_id;sensor_type;location;lat;lon;timestamp;P1;durP1;ratioP1;P2;durP2;ratioP2
21352;SDS011;10834;52.268;6.770;2023-08-06T00:00:32;9.07;;;7.40;;
21352;SDS011;10834;52.268;6.770;2023-08-06T00:03:18;13.07;;;9.53;;
21352;SDS011;10834;52.268;6.770;2023-08-06T00:06:07;10.43;;;8.63;;
21352;SDS011;10834;52.268;6.770;2023-08-06T00:08:53;9.37;;;8.17;;
21352;SDS011;10834;52.268;6.770;2023-08-06T00:11:40;9.40;;;8.20;;
21352;SDS011;10834;52.268;6.770;2023-08-06T00:14:26;11.23;;;9.60;;
21352;SDS011;10834;52.268;6.770;2023-08-06T00:17:12;15.10;;;9.00;;
21352;SDS011;10834;52.268;6.770;2023-08-06T00:19:59;11.53;;;8.20;;
21352;SDS011;10834;52.268;6.770;2023-08-06T00:22:49;14.03;;;8.83;;
21352;SDS011;10834;52.268;6.770;2023-08-06T00:25:36;12.03;;;8.63;;
21352;SDS011;10834;52.268;6.770;2023-08-06T00:28:22;11.67;;;9.10;;
21352;SDS011;10834;52.268;6.770;2023-08-06T00:31:08;10.13;;;7.87;;
21352;SDS011;10834;52.268;6.770;2023-08-06T00:33:54;10.53;;;7.47;;
21352;SDS011;10834;52.268;6.770;2023-08-06T00:36:40;12.23;;;8.63;;
21352;SDS011;10834;52.268;6.770;2023-08-06T00:39:26;11.13;;;7.80;;
21352;SDS011;10834;52.268;6.770;2023-08-06T00:42:12;12.40;;;8.27;;
21352;SDS011;10834;52.268;6.770;2023-08-06T00:44:58;12.30;;;7.17;;
21352;SDS011;10834;52.268;6.770;2023-08-06T00:47:44;8.80;;;7.33;;
21352;SDS011;10834;52.268;6.770;2023-08-06T00:50:31;10.80;;;7.67;;
21352;SDS011;10834;52.268;6.770;2023-08-06T00:53:17;10.63;;;7.80;;
21352;SDS011;10834;52.268;6.770;2023-08-06T00:56:04;10.03;;;7.57;;
21352;SDS011;10834;52.268;6.770;2023-08-06T00:58:50;10.83;;;8.27;;
21352;SDS011;10834;52.268;6.770;2023-08-06T01:01:37;10.80;;;7.63;;
21352;SDS011;10834;52.268;6.770;2023-08-06T01:04:23;9.03;;;7.93;;
21352;SDS011;10834;52.268;6.770;2023-08-06T01:10:36;10.83;;;7.50;;
21352;SDS011;10834;52.268;6.770;2023-08-06T01:16:20;10.80;;;8.10;;
21352;SDS011;10834;52.268;6.770;2023-08-06T01:19:15;10.03;;;8.03;;
21352;SDS011;10834;52.268;6.770;2023-08-06T01:22:02;10.17;;;7.73;;
21352;SDS011;10834;52.268;6.770;2023-08-06T01:24:49;10.00;;;7.53;;
21352;SDS011;10834;52.268;6.770;2023-08-06T01:27:38;11.17;;;8.80;;
21352;SDS011;10834;52.268;6.770;2023-08-06T01:30:36;12.00;;;8.87;;
21352;SDS011;10834;52.268;6.770;2023-08-06T01:33:26;11.07;;;8.20;;
21352;SDS011;10834;52.268;6.770;2023-08-06T01:36:16;11.00;;;8.20;;
21352;SDS011;10834;52.268;6.770;2023-08-06T01:39:04;11.73;;;7.87;;
21352;SDS011;10834;52.268;6.770;2023-08-06T01:41:50;17.27;;;9.50;;
21352;SDS011;10834;52.268;6.770;2023-08-06T01:44:36;13.43;;;9.10;;
21352;SDS011;10834;52.268;6.770;2023-08-06T01:47:22;11.93;;;9.13;;
21352;SDS011;10834;52.268;6.770;2023-08-06T01:50:08;16.83;;;9.53;;
21352;SDS011;10834;52.268;6.770;2023-08-06T01:52:54;12.07;;;9.10;;
21352;SDS011;10834;52.268;6.770;2023-08-06T01:55:41;11.37;;;9.30;;
21352;SDS011;10834;52.268;6.770;2023-08-06T01:58:27;13.73;;;9.60;;
21352;SDS011;10834;52.268;6.770;2023-08-06T02:01:13;12.17;;;10.23;;
21352;SDS011;10834;52.268;6.770;2023-08-06T02:03:59;14.97;;;11.00;;
21352;SDS011;10834;52.268;6.770;2023-08-06T02:06:45;13.17;;;10.07;;
21352;SDS011;10834;52.268;6.770;2023-08-06T02:09:31;13.43;;;9.80;;
21352;SDS011;10834;52.268;6.770;2023-08-06T02:12:17;11.83;;;9.80;;
21352;SDS011;10834;52.268;6.770;2023-08-06T02:15:03;11.40;;;8.63;;
21352;SDS011;10834;52.268;6.770;2023-08-06T02:17:50;13.83;;;9.70;;
21352;SDS011;10834;52.268;6.770;2023-08-06T02:20:36;13.57;;;8.93;;
21352;SDS011;10834;52.268;6.770;2023-08-06T02:23:22;14.37;;;10.57;;
21352;SDS011;10834;52.268;6.770;2023-08-06T02:26:08;14.00;;;10.20;;
21352;SDS011;10834;52.268;6.770;2023-08-06T02:28:54;11.83;;;9.67;;
21352;SDS011;10834;52.268;6.770;2023-08-06T02:31:40;16.73;;;10.37;;
21352;SDS011;10834;52.268;6.770;2023-08-06T02:34:27;13.93;;;9.87;;
21352;SDS011;10834;52.268;6.770;2023-08-06T02:37:13;15.83;;;10.10;;
21352;SDS011;10834;52.268;6.770;2023-08-06T02:39:59;12.63;;;9.40;;
21352;SDS011;10834;52.268;6.770;2023-08-06T02:42:45;11.13;;;8.97;;
21352;SDS011;10834;52.268;6.770;2023-08-06T02:45:31;13.97;;;10.47;;
21352;SDS011;10834;52.268;6.770;2023-08-06T02:48:17;14.33;;;9.70;;
21352;SDS011;10834;52.268;6.770;2023-08-06T02:51:03;17.40;;;10.97;;
21352;SDS011;10834;52.268;6.770;2023-08-06T02:53:49;11.40;;;9.43;;
21352;SDS011;10834;52.268;6.770;2023-08-06T02:56:35;12.63;;;9.73;;
21352;SDS011;10834;52.268;6.770;2023-08-06T02:59:22;12.33;;;10.13;;
21352;SDS011;10834;52.268;6.770;2023-08-06T03:02:08;18.33;;;11.07;;
21352;SDS011;10834;52.268;6.770;2023-08-06T03:04:54;13.63;;;9.77;;
21352;SDS011;10834;52.268;6.770;2023-08-06T03:07:40;12.03;;;9.90;;
21352;SDS011;10834;52.268;6.770;2023-08-06T03:10:26;13.93;;;9.77;;
21352;SDS011;10834;52.268;6.770;2023-08-06T03:13:12;13.30;;;10.10;;
21352;SDS011;10834;52.268;6.770;2023-08-06T03:15:59;15.17;;;10.03;;
21352;SDS011;10834;52.268;6.770;2023-08-06T03:18:45;17.80;;;10.10;;
21352;SDS011;10834;52.268;6.770;2023-08-06T03:21:31;15.47;;;10.97;;
21352;SDS011;10834;52.268;6.770;2023-08-06T03:24:17;12.83;;;10.57;;
21352;SDS011;10834;52.268;6.770;2023-08-06T03:27:03;14.33;;;10.83;;
21352;SDS011;10834;52.268;6.770;2023-08-06T03:29:50;14.50;;;10.20;;
21352;SDS011;10834;52.268;6.770;2023-08-06T03:32:36;12.90;;;9.90;;
21352;SDS011;10834;52.268;6.770;2023-08-06T03:35:22;13.80;;;10.03;;
21352;SDS011;10834;52.268;6.770;2023-08-06T03:38:08;14.10;;;11.40;;
21352;SDS011;10834;52.268;6.770;2023-08-06T03:40:54;15.93;;;11.93;;
21352;SDS011;10834;52.268;6.770;2023-08-06T03:43:40;14.73;;;11.10;;
21352;SDS011;10834;52.268;6.770;2023-08-06T03:46:26;16.77;;;11.37;;
21352;SDS011;10834;52.268;6.770;2023-08-06T03:49:12;17.67;;;12.60;;
21352;SDS011;10834;52.268;6.770;2023-08-06T03:51:58;14.77;;;12.07;;
21352;SDS011;10834;52.268;6.770;2023-08-06T03:54:44;17.87;;;12.67;;
21352;SDS011;10834;52.268;6.770;2023-08-06T03:57:30;16.47;;;12.73;;
21352;SDS011;10834;52.268;6.770;2023-08-06T04:00:16;16.07;;;11.80;;
21352;SDS011;10834;52.268;6.770;2023-08-06T04:03:02;14.37;;;12.00;;
21352;SDS011;10834;52.268;6.770;2023-08-06T04:05:48;18.07;;;12.37;;
21352;SDS011;10834;52.268;6.770;2023-08-06T04:08:34;16.53;;;12.20;;
21352;SDS011;10834;52.268;6.770;2023-08-06T04:11:20;14.10;;;12.17;;
21352;SDS011;10834;52.268;6.770;2023-08-06T04:14:06;17.40;;;13.17;;
21352;SDS011;10834;52.268;6.770;2023-08-06T04:16:52;15.70;;;13.27;;
21352;SDS011;10834;52.268;6.770;2023-08-06T04:19:38;14.10;;;12.33;;
21352;SDS011;10834;52.268;6.770;2023-08-06T04:22:24;16.40;;;12.33;;
21352;SDS011;10834;52.268;6.770;2023-08-06T04:25:11;16.43;;;13.10;;
21352;SDS011;10834;52.268;6.770;2023-08-06T04:27:57;15.33;;;12.63;;
21352;SDS011;10834;52.268;6.770;2023-08-06T04:30:43;15.97;;;12.63;;
21352;SDS011;10834;52.268;6.770;2023-08-06T04:33:29;15.43;;;13.13;;
21352;SDS011;10834;52.268;6.770;2023-08-06T04:36:15;20.57;;;12.43;;
21352;SDS011;10834;52.268;6.770;2023-08-06T04:39:01;17.00;;;12.13;;
21352;SDS011;10834;52.268;6.770;2023-08-06T04:41:47;16.90;;;12.87;;
21352;SDS011;10834;52.268;6.770;2023-08-06T04:44:33;16.10;;;12.83;;
21352;SDS011;10834;52.268;6.770;2023-08-06T04:47:19;18.33;;;12.93;;
21352;SDS011;10834;52.268;6.770;2023-08-06T04:50:05;15.07;;;12.77;;
21352;SDS011;10834;52.268;6.770;2023-08-06T04:52:52;16.00;;;12.73;;
21352;SDS011;10834;52.268;6.770;2023-08-06T04:55:38;19.40;;;13.03;;
21352;SDS011;10834;52.268;6.770;2023-08-06T04:58:24;20.97;;;14.53;;
21352;SDS011;10834;52.268;6.770;2023-08-06T05:01:11;16.57;;;13.53;;
21352;SDS011;10834;52.268;6.770;2023-08-06T05:03:57;17.13;;;12.93;;
21352;SDS011;10834;52.268;6.770;2023-08-06T05:06:43;16.93;;;12.93;;
21352;SDS011;10834;52.268;6.770;2023-08-06T05:09:29;18.47;;;12.57;;
21352;SDS011;10834;52.268;6.770;2023-08-06T05:12:15;18.17;;;13.70;;
21352;SDS011;10834;52.268;6.770;2023-08-06T05:15:01;16.30;;;12.63;;
21352;SDS011;10834;52.268;6.770;2023-08-06T05:17:47;18.27;;;13.33;;
21352;SDS011;10834;52.268;6.770;2023-08-06T05:20:37;18.73;;;13.80;;
21352;SDS011;10834;52.268;6.770;2023-08-06T05:23:25;19.37;;;13.37;;
21352;SDS011;10834;52.268;6.770;2023-08-06T05:26:11;19.43;;;14.43;;
21352;SDS011;10834;52.268;6.770;2023-08-06T05:29:00;18.07;;;13.17;;
21352;SDS011;10834;52.268;6.770;2023-08-06T05:31:46;17.33;;;12.23;;
21352;SDS011;10834;52.268;6.770;2023-08-06T05:34:32;14.03;;;12.23;;
21352;SDS011;10834;52.268;6.770;2023-08-06T05:37:18;17.20;;;13.87;;
21352;SDS011;10834;52.268;6.770;2023-08-06T05:40:04;15.57;;;12.80;;
21352;SDS011;10834;52.268;6.770;2023-08-06T05:42:54;15.97;;;12.53;;
21352;SDS011;10834;52.268;6.770;2023-08-06T05:45:44;15.40;;;12.17;;
21352;SDS011;10834;52.268;6.770;2023-08-06T05:48:31;17.80;;;13.70;;
21352;SDS011;10834;52.268;6.770;2023-08-06T05:51:17;15.57;;;12.27;;
21352;SDS011;10834;52.268;6.770;2023-08-06T05:54:04;19.43;;;13.27;;
21352;SDS011;10834;52.268;6.770;2023-08-06T05:56:50;15.90;;;11.77;;
21352;SDS011;10834;52.268;6.770;2023-08-06T05:59:36;15.20;;;11.63;;
21352;SDS011;10834;52.268;6.770;2023-08-06T06:02:22;14.03;;;12.10;;
21352;SDS011;10834;52.268;6.770;2023-08-06T06:05:08;12.27;;;10.93;;
21352;SDS011;10834;52.268;6.770;2023-08-06T06:07:54;17.43;;;12.20;;
21352;SDS011;10834;52.268;6.770;2023-08-06T06:10:40;12.53;;;10.20;;
21352;SDS011;10834;52.268;6.770;2023-08-06T06:13:26;14.10;;;10.83;;
21352;SDS011;10834;52.268;6.770;2023-08-06T06:16:12;11.90;;;9.20;;
21352;SDS011;10834;52.268;6.770;2023-08-06T06:18:58;10.87;;;8.77;;
21352;SDS011;10834;52.268;6.770;2023-08-06T06:21:44;13.00;;;10.10;;
21352;SDS011;10834;52.268;6.770;2023-08-06T06:24:30;13.30;;;9.70;;
21352;SDS011;10834;52.268;6.770;2023-08-06T06:27:16;13.47;;;9.53;;
21352;SDS011;10834;52.268;6.770;2023-08-06T06:30:02;12.33;;;8.80;;
21352;SDS011;10834;52.268;6.770;2023-08-06T06:32:49;12.77;;;9.07;;
21352;SDS011;10834;52.268;6.770;2023-08-06T06:35:35;13.80;;;9.50;;
21352;SDS011;10834;52.268;6.770;2023-08-06T06:38:22;10.13;;;9.10;;
21352;SDS011;10834;52.268;6.770;2023-08-06T06:41:08;11.17;;;8.73;;
21352;SDS011;10834;52.268;6.770;2023-08-06T06:43:54;15.37;;;8.77;;
21352;SDS011;10834;52.268;6.770;2023-08-06T06:46:40;10.43;;;8.07;;
21352;SDS011;10834;52.268;6.770;2023-08-06T06:49:26;16.03;;;8.83;;
21352;SDS011;10834;52.268;6.770;2023-08-06T06:52:12;10.70;;;8.80;;
21352;SDS011;10834;52.268;6.770;2023-08-06T06:54:58;11.33;;;8.63;;
21352;SDS011;10834;52.268;6.770;2023-08-06T06:57:44;9.90;;;7.77;;
21352;SDS011;10834;52.268;6.770;2023-08-06T07:00:30;10.37;;;9.30;;
21352;SDS011;10834;52.268;6.770;2023-08-06T07:03:16;10.40;;;8.17;;
21352;SDS011;10834;52.268;6.770;2023-08-06T07:06:03;8.77;;;7.80;;
21352;SDS011;10834;52.268;6.770;2023-08-06T07:08:50;11.73;;;8.23;;
21352;SDS011;10834;52.268;6.770;2023-08-06T07:11:37;9.80;;;8.37;;
21352;SDS011;10834;52.268;6.770;2023-08-06T07:14:25;15.10;;;9.10;;
21352;SDS011;10834;52.268;6.770;2023-08-06T07:17:11;9.67;;;8.30;;
21352;SDS011;10834;52.268;6.770;2023-08-06T07:19:57;8.77;;;7.57;;
21352;SDS011;10834;52.268;6.770;2023-08-06T07:22:44;11.80;;;8.07;;
21352;SDS011;10834;52.268;6.770;2023-08-06T07:25:30;9.17;;;8.27;;
21352;SDS011;10834;52.268;6.770;2023-08-06T07:28:16;9.07;;;8.17;;
21352;SDS011;10834;52.268;6.770;2023-08-06T07:31:03;13.93;;;9.13;;
21352;SDS011;10834;52.268;6.770;2023-08-06T07:33:49;9.77;;;8.77;;
21352;SDS011;10834;52.268;6.770;2023-08-06T07:36:35;10.80;;;8.23;;
21352;SDS011;10834;52.268;6.770;2023-08-06T07:39:21;8.57;;;7.73;;
21352;SDS011;10834;52.268;6.770;2023-08-06T07:42:08;8.57;;;7.70;;
21352;SDS011;10834;52.268;6.770;2023-08-06T07:44:56;9.40;;;8.33;;
21352;SDS011;10834;52.268;6.770;2023-08-06T07:47:44;10.83;;;8.40;;
21352;SDS011;10834;52.268;6.770;2023-08-06T07:50:30;9.97;;;8.30;;
21352;SDS011;10834;52.268;6.770;2023-08-06T07:53:16;9.40;;;8.30;;
21352;SDS011;10834;52.268;6.770;2023-08-06T07:56:02;11.67;;;8.07;;
21352;SDS011;10834;52.268;6.770;2023-08-06T07:58:49;12.47;;;8.27;;
21352;SDS011;10834;52.268;6.770;2023-08-06T08:01:35;10.27;;;9.05;;
21352;SDS011;10834;52.268;6.770;2023-08-06T08:04:21;13.00;;;8.97;;
21352;SDS011;10834;52.268;6.770;2023-08-06T08:07:09;11.30;;;9.07;;
21352;SDS011;10834;52.268;6.770;2023-08-06T08:09:55;11.20;;;9.63;;
21352;SDS011;10834;52.268;6.770;2023-08-06T08:12:41;13.20;;;9.93;;
21352;SDS011;10834;52.268;6.770;2023-08-06T08:15:28;14.20;;;9.70;;
21352;SDS011;10834;52.268;6.770;2023-08-06T08:18:14;13.70;;;10.57;;
21352;SDS011;10834;52.268;6.770;2023-08-06T08:21:00;12.63;;;10.17;;
21352;SDS011;10834;52.268;6.770;2023-08-06T08:23:46;13.37;;;10.30;;
21352;SDS011;10834;52.268;6.770;2023-08-06T08:26:32;12.90;;;10.03;;
21352;SDS011;10834;52.268;6.770;2023-08-06T08:29:19;12.43;;;10.00;;
21352;SDS011;10834;52.268;6.770;2023-08-06T08:32:06;12.43;;;10.73;;
21352;SDS011;10834;52.268;6.770;2023-08-06T08:34:52;12.93;;;10.38;;
21352;SDS011;10834;52.268;6.770;2023-08-06T08:37:38;11.85;;;9.38;;
21352;SDS011;10834;52.268;6.770;2023-08-06T08:40:26;11.90;;;9.85;;
21352;SDS011;10834;52.268;6.770;2023-08-06T08:43:18;10.75;;;9.07;;
21352;SDS011;10834;52.268;6.770;2023-08-06T08:46:09;12.65;;;9.38;;
21352;SDS011;10834;52.268;6.770;2023-08-06T08:48:58;12.05;;;8.75;;
21352;SDS011;10834;52.268;6.770;2023-08-06T08:51:45;9.05;;;8.23;;
21352;SDS011;10834;52.268;6.770;2023-08-06T08:54:32;8.20;;;7.28;;
21352;SDS011;10834;52.268;6.770;2023-08-06T08:57:19;8.52;;;7.50;;
21352;SDS011;10834;52.268;6.770;2023-08-06T09:00:06;9.10;;;8.18;;
21352;SDS011;10834;52.268;6.770;2023-08-06T09:02:53;9.18;;;8.25;;
21352;SDS011;10834;52.268;6.770;2023-08-06T09:05:41;7.53;;;6.90;;
21352;SDS011;10834;52.268;6.770;2023-08-06T09:08:32;8.38;;;6.22;;
21352;SDS011;10834;52.268;6.770;2023-08-06T09:11:22;8.88;;;6.07;;
21352;SDS011;10834;52.268;6.770;2023-08-06T09:14:10;7.05;;;6.05;;
21352;SDS011;10834;52.268;6.770;2023-08-06T09:16:57;6.57;;;6.05;;
21352;SDS011;10834;52.268;6.770;2023-08-06T09:19:43;5.78;;;5.28;;
21352;SDS011;10834;52.268;6.770;2023-08-06T09:22:34;5.85;;;5.25;;
21352;SDS011;10834;52.268;6.770;2023-08-06T09:25:23;7.13;;;4.90;;
21352;SDS011;10834;52.268;6.770;2023-08-06T09:28:10;6.72;;;5.60;;
21352;SDS011;10834;52.268;6.770;2023-08-06T09:30:57;6.93;;;6.13;;
21352;SDS011;10834;52.268;6.770;2023-08-06T09:33:46;6.80;;;5.97;;
21352;SDS011;10834;52.268;6.770;2023-08-06T09:36:34;5.65;;;5.15;;
21352;SDS011;10834;52.268;6.770;2023-08-06T09:39:30;6.07;;;4.95;;
21352;SDS011;10834;52.268;6.770;2023-08-06T09:42:16;6.68;;;5.00;;
21352;SDS011;10834;52.268;6.770;2023-08-06T09:45:06;11.00;;;5.50;;
21352;SDS011;10834;52.268;6.770;2023-08-06T09:47:55;4.82;;;4.43;;
21352;SDS011;10834;52.268;6.770;2023-08-06T09:50:42;5.38;;;4.97;;
21352;SDS011;10834;52.268;6.770;2023-08-06T09:53:28;5.47;;;4.97;;
21352;SDS011;10834;52.268;6.770;2023-08-06T09:56:14;8.45;;;4.10;;
21352;SDS011;10834;52.268;6.770;2023-08-06T09:59:04;8.60;;;4.07;;
21352;SDS011;10834;52.268;6.770;2023-08-06T10:01:51;4.90;;;4.40;;
21352;SDS011;10834;52.268;6.770;2023-08-06T10:04:39;4.85;;;3.92;;
21352;SDS011;10834;52.268;6.770;2023-08-06T10:07:28;4.97;;;3.58;;
21352;SDS011;10834;52.268;6.770;2023-08-06T10:10:15;4.60;;;4.05;;
21352;SDS011;10834;52.268;6.770;2023-08-06T10:13:01;4.43;;;4.03;;
21352;SDS011;10834;52.268;6.770;2023-08-06T10:15:50;4.55;;;3.47;;
21352;SDS011;10834;52.268;6.770;2023-08-06T10:18:37;5.50;;;4.05;;
21352;SDS011;10834;52.268;6.770;2023-08-06T10:21:24;4.70;;;4.30;;
21352;SDS011;10834;52.268;6.770;2023-08-06T10:24:13;4.28;;;3.90;;
21352;SDS011;10834;52.268;6.770;2023-08-06T10:27:00;4.15;;;3.85;;
21352;SDS011;10834;52.268;6.770;2023-08-06T10:29:46;4.30;;;3.95;;
21352;SDS011;10834;52.268;6.770;2023-08-06T10:32:47;4.07;;;3.78;;
21352;SDS011;10834;52.268;6.770;2023-08-06T10:35:38;5.15;;;4.25;;
21352;SDS011;10834;52.268;6.770;2023-08-06T10:38:30;3.75;;;3.47;;
21352;SDS011;10834;52.268;6.770;2023-08-06T10:44:13;3.97;;;3.67;;
21352;SDS011;10834;52.268;6.770;2023-08-06T10:47:22;4.68;;;3.85;;
21352;SDS011;10834;52.268;6.770;2023-08-06T10:50:15;4.25;;;3.95;;
21352;SDS011;10834;52.268;6.770;2023-08-06T10:53:03;5.00;;;3.92;;
21352;SDS011;10834;52.268;6.770;2023-08-06T10:55:51;4.15;;;3.75;;
21352;SDS011;10834;52.268;6.770;2023-08-06T10:58:37;4.50;;;4.10;;
21352;SDS011;10834;52.268;6.770;2023-08-06T11:01:23;5.55;;;4.15;;
21352;SDS011;10834;52.268;6.770;2023-08-06T11:04:10;4.32;;;3.95;;
21352;SDS011;10834;52.268;6.770;2023-08-06T11:07:01;5.70;;;3.17;;
21352;SDS011;10834;52.268;6.770;2023-08-06T11:09:49;5.35;;;3.15;;
21352;SDS011;10834;52.268;6.770;2023-08-06T11:12:36;3.00;;;2.70;;
21352;SDS011;10834;52.268;6.770;2023-08-06T11:15:22;2.38;;;2.20;;
21352;SDS011;10834;52.268;6.770;2023-08-06T11:18:09;1.75;;;1.63;;
21352;SDS011;10834;52.268;6.770;2023-08-06T11:20:55;1.80;;;1.70;;
21352;SDS011;10834;52.268;6.770;2023-08-06T11:23:44;2.33;;;1.65;;
21352;SDS011;10834;52.268;6.770;2023-08-06T11:26:30;3.17;;;1.42;;
21352;SDS011;10834;52.268;6.770;2023-08-06T11:29:16;1.55;;;1.45;;
21352;SDS011;10834;52.268;6.770;2023-08-06T11:32:03;1.40;;;1.17;;
21352;SDS011;10834;52.268;6.770;2023-08-06T11:34:50;3.03;;;1.58;;
21352;SDS011;10834;52.268;6.770;2023-08-06T11:37:38;1.58;;;1.48;;
21352;SDS011;10834;52.268;6.770;2023-08-06T11:40:29;1.95;;;1.63;;
21352;SDS011;10834;52.268;6.770;2023-08-06T11:43:18;2.00;;;1.80;;
21352;SDS011;10834;52.268;6.770;2023-08-06T11:46:06;2.38;;;2.17;;
21352;SDS011;10834;52.268;6.770;2023-08-06T11:48:52;2.83;;;2.63;;
21352;SDS011;10834;52.268;6.770;2023-08-06T11:51:42;3.25;;;3.03;;
21352;SDS011;10834;52.268;6.770;2023-08-06T11:54:31;4.03;;;2.88;;
21352;SDS011;10834;52.268;6.770;2023-08-06T11:57:19;2.28;;;2.15;;
21352;SDS011;10834;52.268;6.770;2023-08-06T12:00:09;2.75;;;2.55;;
21352;SDS011;10834;52.268;6.770;2023-08-06T12:02:59;2.50;;;2.30;;
21352;SDS011;10834;52.268;6.770;2023-08-06T12:05:45;5.07;;;1.98;;
21352;SDS011;10834;52.268;6.770;2023-08-06T12:08:32;3.13;;;2.65;;
21352;SDS011;10834;52.268;6.770;2023-08-06T12:11:20;3.67;;;3.38;;
21352;SDS011;10834;52.268;6.770;2023-08-06T12:14:07;5.97;;;5.47;;
21352;SDS011;10834;52.268;6.770;2023-08-06T12:16:53;5.20;;;4.80;;
21352;SDS011;10834;52.268;6.770;2023-08-06T12:19:39;7.53;;;6.93;;
21352;SDS011;10834;52.268;6.770;2023-08-06T12:22:25;8.20;;;7.15;;
21352;SDS011;10834;52.268;6.770;2023-08-06T12:25:11;7.90;;;6.80;;
21352;SDS011;10834;52.268;6.770;2023-08-06T12:27:58;8.38;;;6.93;;
21352;SDS011;10834;52.268;6.770;2023-08-06T12:30:44;9.45;;;8.63;;
21352;SDS011;10834;52.268;6.770;2023-08-06T12:33:31;8.50;;;7.80;;
21352;SDS011;10834;52.268;6.770;2023-08-06T12:36:17;7.90;;;7.20;;
21352;SDS011;10834;52.268;6.770;2023-08-06T12:39:03;7.22;;;6.50;;
21352;SDS011;10834;52.268;6.770;2023-08-06T12:41:49;6.63;;;5.78;;
21352;SDS011;10834;52.268;6.770;2023-08-06T12:44:35;6.95;;;4.97;;
21352;SDS011;10834;52.268;6.770;2023-08-06T12:47:21;5.25;;;4.85;;
21352;SDS011;10834;52.268;6.770;2023-08-06T12:50:07;5.35;;;4.85;;
21352;SDS011;10834;52.268;6.770;2023-08-06T12:52:54;7.20;;;5.13;;
21352;SDS011;10834;52.268;6.770;2023-08-06T12:55:40;5.75;;;5.15;;
21352;SDS011;10834;52.268;6.770;2023-08-06T12:58:26;5.63;;;5.13;;
21352;SDS011;10834;52.268;6.770;2023-08-06T13:01:12;9.40;;;5.63;;
21352;SDS011;10834;52.268;6.770;2023-08-06T13:03:59;5.53;;;5.03;;
21352;SDS011;10834;52.268;6.770;2023-08-06T13:06:46;6.70;;;6.15;;
21352;SDS011;10834;52.268;6.770;2023-08-06T13:09:32;8.77;;;5.75;;
21352;SDS011;10834;52.268;6.770;2023-08-06T13:12:18;5.75;;;5.22;;
21352;SDS011;10834;52.268;6.770;2023-08-06T13:15:08;5.30;;;4.40;;
21352;SDS011;10834;52.268;6.770;2023-08-06T13:17:55;5.93;;;5.43;;
21352;SDS011;10834;52.268;6.770;2023-08-06T13:20:41;5.50;;;5.00;;
21352;SDS011;10834;52.268;6.770;2023-08-06T13:23:27;6.30;;;5.10;;
21352;SDS011;10834;52.268;6.770;2023-08-06T13:26:13;5.68;;;5.05;;
21352;SDS011;10834;52.268;6.770;2023-08-06T13:29:01;5.72;;;5.22;;
21352;SDS011;10834;52.268;6.770;2023-08-06T13:31:48;5.30;;;4.90;;
21352;SDS011;10834;52.268;6.770;2023-08-06T13:34:34;5.47;;;5.07;;
21352;SDS011;10834;52.268;6.770;2023-08-06T13:37:20;5.20;;;4.70;;
21352;SDS011;10834;52.268;6.770;2023-08-06T13:40:06;4.88;;;4.47;;
21352;SDS011;10834;52.268;6.770;2023-08-06T13:42:54;4.78;;;4.43;;
21352;SDS011;10834;52.268;6.770;2023-08-06T13:45:40;4.22;;;3.83;;
21352;SDS011;10834;52.268;6.770;2023-08-06T13:48:26;4.07;;;3.67;;
21352;SDS011;10834;52.268;6.770;2023-08-06T13:51:12;6.40;;;3.72;;
21352;SDS011;10834;52.268;6.770;2023-08-06T13:53:58;3.80;;;3.50;;
21352;SDS011;10834;52.268;6.770;2023-08-06T13:56:45;3.95;;;3.65;;
21352;SDS011;10834;52.268;6.770;2023-08-06T13:59:31;4.22;;;3.83;;
21352;SDS011;10834;52.268;6.770;2023-08-06T14:02:17;4.57;;;4.18;;
21352;SDS011;10834;52.268;6.770;2023-08-06T14:05:04;5.32;;;4.30;;
21352;SDS011;10834;52.268;6.770;2023-08-06T14:07:51;3.85;;;3.55;;
21352;SDS011;10834;52.268;6.770;2023-08-06T14:10:37;6.80;;;3.90;;
21352;SDS011;10834;52.268;6.770;2023-08-06T14:13:23;5.40;;;3.92;;
21352;SDS011;10834;52.268;6.770;2023-08-06T14:16:09;4.07;;;3.78;;
21352;SDS011;10834;52.268;6.770;2023-08-06T14:18:55;3.90;;;3.60;;
21352;SDS011;10834;52.268;6.770;2023-08-06T14:21:41;4.32;;;3.92;;
21352;SDS011;10834;52.268;6.770;2023-08-06T14:24:27;6.95;;;5.55;;
21352;SDS011;10834;52.268;6.770;2023-08-06T14:27:13;5.40;;;4.90;;
21352;SDS011;10834;52.268;6.770;2023-08-06T14:30:00;16.45;;;6.30;;
21352;SDS011;10834;52.268;6.770;2023-08-06T14:32:48;18.10;;;7.82;;
21352;SDS011;10834;52.268;6.770;2023-08-06T14:35:34;32.38;;;10.15;;
21352;SDS011;10834;52.268;6.770;2023-08-06T14:38:20;27.05;;;8.30;;
21352;SDS011;10834;52.268;6.770;2023-08-06T14:41:06;18.85;;;3.20;;
21352;SDS011;10834;52.268;6.770;2023-08-06T14:43:52;7.30;;;2.20;;
21352;SDS011;10834;52.268;6.770;2023-08-06T14:46:39;14.30;;;3.58;;
21352;SDS011;10834;52.268;6.770;2023-08-06T14:49:25;8.57;;;3.13;;
21352;SDS011;10834;52.268;6.770;2023-08-06T14:52:11;6.97;;;3.70;;
21352;SDS011;10834;52.268;6.770;2023-08-06T14:54:57;7.15;;;3.47;;
21352;SDS011;10834;52.268;6.770;2023-08-06T14:57:43;4.37;;;3.73;;
21352;SDS011;10834;52.268;6.770;2023-08-06T15:00:29;3.90;;;3.27;;
21352;SDS011;10834;52.268;6.770;2023-08-06T15:03:15;4.67;;;3.53;;
21352;SDS011;10834;52.268;6.770;2023-08-06T15:06:01;5.03;;;3.50;;
21352;SDS011;10834;52.268;6.770;2023-08-06T15:08:47;4.18;;;2.63;;
21352;SDS011;10834;52.268;6.770;2023-08-06T15:11:33;5.15;;;4.15;;
21352;SDS011;10834;52.268;6.770;2023-08-06T15:14:19;3.42;;;3.13;;
21352;SDS011;10834;52.268;6.770;2023-08-06T15:17:05;5.13;;;3.43;;
21352;SDS011;10834;52.268;6.770;2023-08-06T15:19:51;3.70;;;3.40;;
21352;SDS011;10834;52.268;6.770;2023-08-06T15:22:37;6.67;;;3.80;;
21352;SDS011;10834;52.268;6.770;2023-08-06T15:25:23;5.67;;;4.00;;
21352;SDS011;10834;52.268;6.770;2023-08-06T15:28:10;6.77;;;4.87;;
21352;SDS011;10834;52.268;6.770;2023-08-06T15:30:56;6.17;;;5.57;;
21352;SDS011;10834;52.268;6.770;2023-08-06T15:33:42;6.27;;;4.87;;
21352;SDS011;10834;52.268;6.770;2023-08-06T15:36:28;7.13;;;5.70;;
21352;SDS011;10834;52.268;6.770;2023-08-06T15:39:14;7.00;;;6.30;;
21352;SDS011;10834;52.268;6.770;2023-08-06T15:42:00;6.67;;;6.03;;
21352;SDS011;10834;52.268;6.770;2023-08-06T15:44:47;9.30;;;7.53;;
21352;SDS011;10834;52.268;6.770;2023-08-06T15:47:33;7.90;;;7.10;;
21352;SDS011;10834;52.268;6.770;2023-08-06T15:50:25;12.60;;;7.63;;
21352;SDS011;10834;52.268;6.770;2023-08-06T15:53:11;9.00;;;8.10;;
21352;SDS011;10834;52.268;6.770;2023-08-06T15:55:57;9.77;;;7.40;;
21352;SDS011;10834;52.268;6.770;2023-08-06T15:58:43;10.90;;;8.10;;
21352;SDS011;10834;52.268;6.770;2023-08-06T16:01:29;8.87;;;7.57;;
21352;SDS011;10834;52.268;6.770;2023-08-06T16:04:16;7.73;;;7.03;;
21352;SDS011;10834;52.268;6.770;2023-08-06T16:07:02;8.37;;;7.57;;
21352;SDS011;10834;52.268;6.770;2023-08-06T16:09:48;10.83;;;8.33;;
21352;SDS011;10834;52.268;6.770;2023-08-06T16:12:35;9.30;;;7.30;;
21352;SDS011;10834;52.268;6.770;2023-08-06T16:15:21;8.07;;;6.40;;
21352;SDS011;10834;52.268;6.770;2023-08-06T16:18:07;7.80;;;7.00;;
21352;SDS011;10834;52.268;6.770;2023-08-06T16:20:53;9.80;;;6.97;;
21352;SDS011;10834;52.268;6.770;2023-08-06T16:23:39;9.03;;;8.00;;
21352;SDS011;10834;52.268;6.770;2023-08-06T16:26:26;8.87;;;7.60;;
21352;SDS011;10834;52.268;6.770;2023-08-06T16:29:12;9.33;;;8.27;;
21352;SDS011;10834;52.268;6.770;2023-08-06T16:31:58;10.13;;;7.57;;
21352;SDS011;10834;52.268;6.770;2023-08-06T16:34:45;8.43;;;6.60;;
21352;SDS011;10834;52.268;6.770;2023-08-06T16:37:31;7.93;;;7.23;;
21352;SDS011;10834;52.268;6.770;2023-08-06T16:40:17;9.50;;;6.60;;
21352;SDS011;10834;52.268;6.770;2023-08-06T16:43:03;6.97;;;6.27;;